sensor_id;sensor_type;location;lat;lon;timestamp;P1;durP1;ratioP1;P2;durP2;ratioP2
5606;SDS011;2825;53.116;9.392;2022-08-01T00:01:54;16.73;;;9.83;;
5606;SDS011;2825;53.116;9.392;2022-08-01T00:04:20;14.83;;;9.37;;
5606;SDS011;2825;53.116;9.392;2022-08-01T00:06:46;15.90;;;8.77;;
5606;SDS011;2825;53.116;9.392;2022-08-01T00:09:11;14.83;;;9.20;;
5606;SDS011;2825;53.116;9.392;2022-08-01T00:11:37;14.50;;;8.10;;
5606;SDS011;2825;53.116;9.392;2022-08-01T00:14:03;13.00;;;7.03;;
5606;SDS011;2825;53.116;9.392;2022-08-01T00:16:29;13.10;;;7.03;;
5606;SDS011;2825;53.116;9.392;2022-08-01T00:18:54;12.10;;;5.70;;
5606;SDS011;2825;53.116;9.392;2022-08-01T00:21:20;12.57;;;5.73;;
5606;SDS011;2825;53.116;9.392;2022-08-01T00:23:47;14.03;;;6.23;;
5606;SDS011;2825;53.116;9.392;2022-08-01T00:26:13;12.80;;;5.77;;
5606;SDS011;2825;53.116;9.392;2022-08-01T00:28:40;13.33;;;6.40;;
5606;SDS011;2825;53.116;9.392;2022-08-01T00:31:06;12.10;;;6.00;;
5606;SDS011;2825;53.116;9.392;2022-08-01T00:33:32;11.60;;;5.50;;
5606;SDS011;2825;53.116;9.392;2022-08-01T00:35:58;12.50;;;5.40;;
5606;SDS011;2825;53.116;9.392;2022-08-01T00:38:24;12.90;;;6.47;;
5606;SDS011;2825;53.116;9.392;2022-08-01T00:40:50;13.60;;;6.50;;
5606;SDS011;2825;53.116;9.392;2022-08-01T00:43:16;13.33;;;6.20;;
5606;SDS011;2825;53.116;9.392;2022-08-01T00:45:42;13.27;;;6.47;;
5606;SDS011;2825;53.116;9.392;2022-08-01T00:48:07;14.47;;;6.47;;
5606;SDS011;2825;53.116;9.392;2022-08-01T00:50:33;13.27;;;6.60;;
5606;SDS011;2825;53.116;9.392;2022-08-01T00:53:00;13.00;;;6.60;;
5606;SDS011;2825;53.116;9.392;2022-08-01T00:55:27;14.17;;;7.27;;
5606;SDS011;2825;53.116;9.392;2022-08-01T00:57:53;14.50;;;7.53;;
5606;SDS011;2825;53.116;9.392;2022-08-01T01:00:19;13.77;;;7.30;;
5606;SDS011;2825;53.116;9.392;2022-08-01T01:02:46;14.17;;;7.20;;
5606;SDS011;2825;53.116;9.392;2022-08-01T01:05:11;14.90;;;7.43;;
5606;SDS011;2825;53.116;9.392;2022-08-01T01:07:44;14.67;;;7.70;;
5606;SDS011;2825;53.116;9.392;2022-08-01T01:15:47;15.27;;;8.50;;
5606;SDS011;2825;53.116;9.392;2022-08-01T01:29:20;18.50;;;9.13;;
5606;SDS011;2825;53.116;9.392;2022-08-01T01:31:48;18.90;;;9.23;;
5606;SDS011;2825;53.116;9.392;2022-08-01T01:34:18;16.80;;;8.90;;
5606;SDS011;2825;53.116;9.392;2022-08-01T01:36:46;17.87;;;10.13;;
5606;SDS011;2825;53.116;9.392;2022-08-01T01:39:13;18.17;;;10.40;;
5606;SDS011;2825;53.116;9.392;2022-08-01T01:41:40;18.73;;;10.43;;
5606;SDS011;2825;53.116;9.392;2022-08-01T01:44:07;18.03;;;10.07;;
5606;SDS011;2825;53.116;9.392;2022-08-01T01:46:35;19.40;;;11.23;;
5606;SDS011;2825;53.116;9.392;2022-08-01T01:49:02;18.70;;;10.77;;
5606;SDS011;2825;53.116;9.392;2022-08-01T01:51:30;16.37;;;9.50;;
5606;SDS011;2825;53.116;9.392;2022-08-01T01:53:56;18.67;;;10.97;;
5606;SDS011;2825;53.116;9.392;2022-08-01T01:56:23;15.93;;;9.90;;
5606;SDS011;2825;53.116;9.392;2022-08-01T01:58:54;15.20;;;9.73;;
5606;SDS011;2825;53.116;9.392;2022-08-01T02:01:23;19.10;;;10.20;;
5606;SDS011;2825;53.116;9.392;2022-08-01T02:03:53;17.13;;;9.97;;
5606;SDS011;2825;53.116;9.392;2022-08-01T02:06:22;17.30;;;10.20;;
5606;SDS011;2825;53.116;9.392;2022-08-01T02:08:51;18.57;;;11.40;;
5606;SDS011;2825;53.116;9.392;2022-08-01T02:11:19;17.37;;;10.10;;
5606;SDS011;2825;53.116;9.392;2022-08-01T02:13:52;18.37;;;11.10;;
5606;SDS011;2825;53.116;9.392;2022-08-01T02:16:27;19.47;;;11.77;;
5606;SDS011;2825;53.116;9.392;2022-08-01T02:18:56;20.20;;;12.70;;
5606;SDS011;2825;53.116;9.392;2022-08-01T02:21:37;19.93;;;12.03;;
5606;SDS011;2825;53.116;9.392;2022-08-01T02:24:12;17.93;;;10.33;;
5606;SDS011;2825;53.116;9.392;2022-08-01T02:26:54;19.83;;;11.87;;
5606;SDS011;2825;53.116;9.392;2022-08-01T02:29:28;16.07;;;9.40;;
5606;SDS011;2825;53.116;9.392;2022-08-01T02:32:02;16.97;;;9.00;;
5606;SDS011;2825;53.116;9.392;2022-08-01T02:34:31;16.27;;;8.50;;
5606;SDS011;2825;53.116;9.392;2022-08-01T02:37:00;16.40;;;7.17;;
5606;SDS011;2825;53.116;9.392;2022-08-01T02:39:28;15.00;;;7.30;;
5606;SDS011;2825;53.116;9.392;2022-08-01T02:41:56;17.03;;;7.23;;
5606;SDS011;2825;53.116;9.392;2022-08-01T02:44:32;13.47;;;6.70;;
5606;SDS011;2825;53.116;9.392;2022-08-01T02:47:19;14.70;;;7.10;;
5606;SDS011;2825;53.116;9.392;2022-08-01T02:49:47;18.23;;;8.53;;
5606;SDS011;2825;53.116;9.392;2022-08-01T02:52:15;15.70;;;7.63;;
5606;SDS011;2825;53.116;9.392;2022-08-01T02:54:43;16.53;;;8.07;;
5606;SDS011;2825;53.116;9.392;2022-08-01T02:57:10;15.73;;;8.00;;
5606;SDS011;2825;53.116;9.392;2022-08-01T02:59:38;16.93;;;8.77;;
5606;SDS011;2825;53.116;9.392;2022-08-01T03:02:04;15.47;;;8.43;;
5606;SDS011;2825;53.116;9.392;2022-08-01T03:04:35;15.87;;;9.13;;
5606;SDS011;2825;53.116;9.392;2022-08-01T03:07:04;21.67;;;9.10;;
5606;SDS011;2825;53.116;9.392;2022-08-01T03:09:32;17.80;;;9.50;;
5606;SDS011;2825;53.116;9.392;2022-08-01T03:12:02;18.70;;;10.37;;
5606;SDS011;2825;53.116;9.392;2022-08-01T03:14:35;17.00;;;8.43;;
5606;SDS011;2825;53.116;9.392;2022-08-01T03:17:03;18.50;;;9.33;;
5606;SDS011;2825;53.116;9.392;2022-08-01T03:19:30;18.23;;;8.40;;
5606;SDS011;2825;53.116;9.392;2022-08-01T03:21:58;17.13;;;8.70;;
5606;SDS011;2825;53.116;9.392;2022-08-01T03:24:28;16.03;;;8.13;;
5606;SDS011;2825;53.116;9.392;2022-08-01T03:26:55;14.90;;;6.60;;
5606;SDS011;2825;53.116;9.392;2022-08-01T03:29:24;15.47;;;6.50;;
5606;SDS011;2825;53.116;9.392;2022-08-01T03:31:52;14.50;;;7.20;;
5606;SDS011;2825;53.116;9.392;2022-08-01T03:34:18;15.70;;;6.87;;
5606;SDS011;2825;53.116;9.392;2022-08-01T03:36:49;14.27;;;7.13;;
5606;SDS011;2825;53.116;9.392;2022-08-01T03:39:35;15.60;;;7.17;;
5606;SDS011;2825;53.116;9.392;2022-08-01T03:42:07;20.43;;;8.37;;
5606;SDS011;2825;53.116;9.392;2022-08-01T03:44:37;14.73;;;6.53;;
5606;SDS011;2825;53.116;9.392;2022-08-01T03:47:05;14.50;;;7.10;;
5606;SDS011;2825;53.116;9.392;2022-08-01T03:49:35;16.40;;;7.40;;
5606;SDS011;2825;53.116;9.392;2022-08-01T03:52:05;14.53;;;7.00;;
5606;SDS011;2825;53.116;9.392;2022-08-01T03:54:34;17.50;;;7.60;;
5606;SDS011;2825;53.116;9.392;2022-08-01T03:57:03;17.30;;;7.20;;
5606;SDS011;2825;53.116;9.392;2022-08-01T03:59:30;14.37;;;6.87;;
5606;SDS011;2825;53.116;9.392;2022-08-01T04:01:57;15.83;;;7.37;;
5606;SDS011;2825;53.116;9.392;2022-08-01T04:04:24;15.50;;;7.57;;
5606;SDS011;2825;53.116;9.392;2022-08-01T04:06:50;15.63;;;6.83;;
5606;SDS011;2825;53.116;9.392;2022-08-01T04:09:19;14.87;;;6.60;;
5606;SDS011;2825;53.116;9.392;2022-08-01T04:11:46;15.53;;;5.80;;
5606;SDS011;2825;53.116;9.392;2022-08-01T04:14:12;13.80;;;6.13;;
5606;SDS011;2825;53.116;9.392;2022-08-01T04:16:38;16.30;;;6.37;;
5606;SDS011;2825;53.116;9.392;2022-08-01T04:19:04;15.20;;;6.90;;
5606;SDS011;2825;53.116;9.392;2022-08-01T04:21:32;16.37;;;6.57;;
5606;SDS011;2825;53.116;9.392;2022-08-01T04:24:04;14.40;;;6.40;;
5606;SDS011;2825;53.116;9.392;2022-08-01T04:26:34;16.57;;;7.10;;
5606;SDS011;2825;53.116;9.392;2022-08-01T04:29:02;18.30;;;8.00;;
5606;SDS011;2825;53.116;9.392;2022-08-01T04:31:30;15.40;;;7.70;;
5606;SDS011;2825;53.116;9.392;2022-08-01T04:33:57;15.80;;;7.30;;
5606;SDS011;2825;53.116;9.392;2022-08-01T04:36:24;16.70;;;8.50;;
5606;SDS011;2825;53.116;9.392;2022-08-01T04:38:54;16.83;;;8.00;;
5606;SDS011;2825;53.116;9.392;2022-08-01T04:41:22;15.40;;;7.63;;
5606;SDS011;2825;53.116;9.392;2022-08-01T04:43:49;16.40;;;7.93;;
5606;SDS011;2825;53.116;9.392;2022-08-01T04:46:16;16.60;;;7.80;;
5606;SDS011;2825;53.116;9.392;2022-08-01T04:48:44;15.20;;;8.47;;
5606;SDS011;2825;53.116;9.392;2022-08-01T04:51:11;19.97;;;8.07;;
5606;SDS011;2825;53.116;9.392;2022-08-01T04:53:41;15.80;;;7.93;;
5606;SDS011;2825;53.116;9.392;2022-08-01T04:56:08;17.67;;;8.47;;
5606;SDS011;2825;53.116;9.392;2022-08-01T04:58:34;17.93;;;7.53;;
5606;SDS011;2825;53.116;9.392;2022-08-01T05:01:00;14.63;;;7.60;;
5606;SDS011;2825;53.116;9.392;2022-08-01T05:03:25;14.93;;;6.83;;
5606;SDS011;2825;53.116;9.392;2022-08-01T05:05:51;13.60;;;6.33;;
5606;SDS011;2825;53.116;9.392;2022-08-01T05:08:17;15.00;;;7.17;;
5606;SDS011;2825;53.116;9.392;2022-08-01T05:10:42;15.57;;;7.30;;
5606;SDS011;2825;53.116;9.392;2022-08-01T05:13:08;14.67;;;7.17;;
5606;SDS011;2825;53.116;9.392;2022-08-01T05:15:35;14.83;;;6.43;;
5606;SDS011;2825;53.116;9.392;2022-08-01T05:18:03;15.77;;;7.00;;
5606;SDS011;2825;53.116;9.392;2022-08-01T05:20:29;16.20;;;6.87;;
5606;SDS011;2825;53.116;9.392;2022-08-01T05:22:55;14.00;;;6.00;;
5606;SDS011;2825;53.116;9.392;2022-08-01T05:25:22;14.43;;;6.70;;
5606;SDS011;2825;53.116;9.392;2022-08-01T05:27:48;14.03;;;7.00;;
5606;SDS011;2825;53.116;9.392;2022-08-01T05:30:14;14.40;;;6.50;;
5606;SDS011;2825;53.116;9.392;2022-08-01T05:32:40;14.27;;;5.00;;
5606;SDS011;2825;53.116;9.392;2022-08-01T05:35:06;14.20;;;4.77;;
5606;SDS011;2825;53.116;9.392;2022-08-01T05:37:32;12.70;;;4.00;;
5606;SDS011;2825;53.116;9.392;2022-08-01T05:39:58;10.70;;;2.60;;
5606;SDS011;2825;53.116;9.392;2022-08-01T05:42:24;10.83;;;2.37;;
5606;SDS011;2825;53.116;9.392;2022-08-01T05:44:50;10.63;;;2.43;;
5606;SDS011;2825;53.116;9.392;2022-08-01T05:47:16;11.50;;;2.40;;
5606;SDS011;2825;53.116;9.392;2022-08-01T05:49:43;10.73;;;2.17;;
5606;SDS011;2825;53.116;9.392;2022-08-01T05:52:10;13.33;;;1.97;;
5606;SDS011;2825;53.116;9.392;2022-08-01T05:54:36;14.43;;;2.70;;
5606;SDS011;2825;53.116;9.392;2022-08-01T05:57:02;11.67;;;2.07;;
5606;SDS011;2825;53.116;9.392;2022-08-01T05:59:28;11.30;;;1.83;;
5606;SDS011;2825;53.116;9.392;2022-08-01T06:01:54;10.53;;;1.90;;
5606;SDS011;2825;53.116;9.392;2022-08-01T06:04:20;12.60;;;1.87;;
5606;SDS011;2825;53.116;9.392;2022-08-01T06:06:46;10.67;;;1.93;;
5606;SDS011;2825;53.116;9.392;2022-08-01T06:09:12;11.50;;;1.60;;
5606;SDS011;2825;53.116;9.392;2022-08-01T06:11:37;11.83;;;1.87;;
5606;SDS011;2825;53.116;9.392;2022-08-01T06:14:03;14.03;;;2.27;;
5606;SDS011;2825;53.116;9.392;2022-08-01T06:16:29;12.90;;;2.07;;
5606;SDS011;2825;53.116;9.392;2022-08-01T06:18:55;12.80;;;2.20;;
5606;SDS011;2825;53.116;9.392;2022-08-01T06:21:21;12.93;;;2.00;;
5606;SDS011;2825;53.116;9.392;2022-08-01T06:23:47;11.73;;;2.20;;
5606;SDS011;2825;53.116;9.392;2022-08-01T06:26:13;13.93;;;1.83;;
5606;SDS011;2825;53.116;9.392;2022-08-01T06:28:38;10.60;;;1.50;;
5606;SDS011;2825;53.116;9.392;2022-08-01T06:31:04;11.60;;;2.30;;
5606;SDS011;2825;53.116;9.392;2022-08-01T06:33:30;11.30;;;1.97;;
5606;SDS011;2825;53.116;9.392;2022-08-01T06:35:56;10.50;;;1.30;;
5606;SDS011;2825;53.116;9.392;2022-08-01T06:38:22;16.90;;;2.00;;
5606;SDS011;2825;53.116;9.392;2022-08-01T06:40:49;11.93;;;2.60;;
5606;SDS011;2825;53.116;9.392;2022-08-01T06:43:15;12.47;;;2.00;;
5606;SDS011;2825;53.116;9.392;2022-08-01T06:45:40;11.53;;;2.30;;
5606;SDS011;2825;53.116;9.392;2022-08-01T06:48:06;14.00;;;1.93;;
5606;SDS011;2825;53.116;9.392;2022-08-01T06:50:32;14.43;;;2.10;;
5606;SDS011;2825;53.116;9.392;2022-08-01T06:53:00;13.17;;;1.50;;
5606;SDS011;2825;53.116;9.392;2022-08-01T06:55:26;18.33;;;2.30;;
5606;SDS011;2825;53.116;9.392;2022-08-01T06:57:52;16.10;;;2.10;;
5606;SDS011;2825;53.116;9.392;2022-08-01T07:00:21;15.10;;;2.60;;
5606;SDS011;2825;53.116;9.392;2022-08-01T07:02:49;19.07;;;3.10;;
5606;SDS011;2825;53.116;9.392;2022-08-01T07:05:16;25.70;;;3.90;;
5606;SDS011;2825;53.116;9.392;2022-08-01T07:07:42;17.60;;;3.00;;
5606;SDS011;2825;53.116;9.392;2022-08-01T07:10:08;14.43;;;2.97;;
5606;SDS011;2825;53.116;9.392;2022-08-01T07:12:35;15.83;;;3.53;;
5606;SDS011;2825;53.116;9.392;2022-08-01T07:15:05;24.20;;;3.90;;
5606;SDS011;2825;53.116;9.392;2022-08-01T07:17:32;16.77;;;2.80;;
5606;SDS011;2825;53.116;9.392;2022-08-01T07:20:01;17.20;;;3.10;;
5606;SDS011;2825;53.116;9.392;2022-08-01T07:22:27;17.30;;;3.30;;
5606;SDS011;2825;53.116;9.392;2022-08-01T07:24:53;19.93;;;3.20;;
5606;SDS011;2825;53.116;9.392;2022-08-01T07:27:18;19.07;;;2.87;;
5606;SDS011;2825;53.116;9.392;2022-08-01T07:29:44;21.20;;;3.37;;
5606;SDS011;2825;53.116;9.392;2022-08-01T07:32:10;17.23;;;3.80;;
5606;SDS011;2825;53.116;9.392;2022-08-01T07:34:35;21.00;;;4.10;;
5606;SDS011;2825;53.116;9.392;2022-08-01T07:37:01;19.07;;;3.00;;
5606;SDS011;2825;53.116;9.392;2022-08-01T07:39:27;16.73;;;3.40;;
5606;SDS011;2825;53.116;9.392;2022-08-01T07:41:52;17.37;;;3.60;;
5606;SDS011;2825;53.116;9.392;2022-08-01T07:44:18;21.40;;;3.03;;
5606;SDS011;2825;53.116;9.392;2022-08-01T07:46:44;16.47;;;3.20;;
5606;SDS011;2825;53.116;9.392;2022-08-01T07:49:10;17.87;;;3.97;;
5606;SDS011;2825;53.116;9.392;2022-08-01T07:51:36;24.50;;;4.20;;
5606;SDS011;2825;53.116;9.392;2022-08-01T07:54:03;20.60;;;5.03;;
5606;SDS011;2825;53.116;9.392;2022-08-01T07:56:28;20.10;;;4.03;;
5606;SDS011;2825;53.116;9.392;2022-08-01T07:58:54;26.37;;;3.43;;
5606;SDS011;2825;53.116;9.392;2022-08-01T08:01:20;19.63;;;3.20;;
5606;SDS011;2825;53.116;9.392;2022-08-01T08:03:46;15.80;;;3.97;;
5606;SDS011;2825;53.116;9.392;2022-08-01T08:06:12;24.93;;;4.87;;
5606;SDS011;2825;53.116;9.392;2022-08-01T08:08:38;19.83;;;4.27;;
5606;SDS011;2825;53.116;9.392;2022-08-01T08:11:04;17.73;;;4.10;;
5606;SDS011;2825;53.116;9.392;2022-08-01T08:13:30;26.63;;;3.87;;
5606;SDS011;2825;53.116;9.392;2022-08-01T08:15:56;23.53;;;3.67;;
5606;SDS011;2825;53.116;9.392;2022-08-01T08:18:23;22.03;;;4.97;;
5606;SDS011;2825;53.116;9.392;2022-08-01T08:20:49;18.37;;;3.70;;
5606;SDS011;2825;53.116;9.392;2022-08-01T08:23:14;19.77;;;3.33;;
5606;SDS011;2825;53.116;9.392;2022-08-01T08:25:58;26.33;;;4.97;;
5606;SDS011;2825;53.116;9.392;2022-08-01T08:28:24;23.63;;;3.80;;
5606;SDS011;2825;53.116;9.392;2022-08-01T08:30:50;22.80;;;4.30;;
5606;SDS011;2825;53.116;9.392;2022-08-01T08:33:18;20.17;;;3.20;;
5606;SDS011;2825;53.116;9.392;2022-08-01T08:35:43;22.90;;;3.37;;
5606;SDS011;2825;53.116;9.392;2022-08-01T08:38:09;20.10;;;3.40;;
5606;SDS011;2825;53.116;9.392;2022-08-01T08:40:35;25.13;;;3.87;;
5606;SDS011;2825;53.116;9.392;2022-08-01T08:43:03;21.67;;;3.70;;
5606;SDS011;2825;53.116;9.392;2022-08-01T08:45:30;20.40;;;3.30;;
5606;SDS011;2825;53.116;9.392;2022-08-01T08:47:57;20.60;;;4.10;;
5606;SDS011;2825;53.116;9.392;2022-08-01T08:50:23;20.10;;;3.20;;
5606;SDS011;2825;53.116;9.392;2022-08-01T08:52:50;21.10;;;3.70;;
5606;SDS011;2825;53.116;9.392;2022-08-01T08:55:19;18.90;;;3.53;;
5606;SDS011;2825;53.116;9.392;2022-08-01T08:57:45;24.63;;;3.83;;
5606;SDS011;2825;53.116;9.392;2022-08-01T09:00:13;18.00;;;3.07;;
5606;SDS011;2825;53.116;9.392;2022-08-01T09:02:43;22.27;;;4.67;;
5606;SDS011;2825;53.116;9.392;2022-08-01T09:05:10;21.30;;;3.80;;
5606;SDS011;2825;53.116;9.392;2022-08-01T09:07:37;20.30;;;4.67;;
5606;SDS011;2825;53.116;9.392;2022-08-01T09:10:03;19.80;;;4.13;;
5606;SDS011;2825;53.116;9.392;2022-08-01T09:12:30;21.43;;;3.90;;
5606;SDS011;2825;53.116;9.392;2022-08-01T09:14:57;21.43;;;3.30;;
5606;SDS011;2825;53.116;9.392;2022-08-01T09:17:23;27.13;;;3.87;;
5606;SDS011;2825;53.116;9.392;2022-08-01T09:19:53;21.30;;;3.37;;
5606;SDS011;2825;53.116;9.392;2022-08-01T09:22:21;19.13;;;3.67;;
5606;SDS011;2825;53.116;9.392;2022-08-01T09:27:34;24.47;;;4.30;;
5606;SDS011;2825;53.116;9.392;2022-08-01T09:30:07;21.80;;;2.70;;
5606;SDS011;2825;53.116;9.392;2022-08-01T09:33:02;20.33;;;4.00;;
5606;SDS011;2825;53.116;9.392;2022-08-01T09:35:31;25.90;;;3.20;;
5606;SDS011;2825;53.116;9.392;2022-08-01T09:38:16;19.77;;;3.40;;
5606;SDS011;2825;53.116;9.392;2022-08-01T09:40:44;18.40;;;2.43;;
5606;SDS011;2825;53.116;9.392;2022-08-01T09:43:11;19.60;;;3.53;;
5606;SDS011;2825;53.116;9.392;2022-08-01T09:45:37;24.97;;;4.10;;
5606;SDS011;2825;53.116;9.392;2022-08-01T09:48:06;26.73;;;4.50;;
5606;SDS011;2825;53.116;9.392;2022-08-01T09:50:40;19.50;;;3.13;;
5606;SDS011;2825;53.116;9.392;2022-08-01T09:53:11;18.17;;;3.30;;
5606;SDS011;2825;53.116;9.392;2022-08-01T09:55:38;24.90;;;3.50;;
5606;SDS011;2825;53.116;9.392;2022-08-01T09:58:05;22.20;;;3.10;;
5606;SDS011;2825;53.116;9.392;2022-08-01T10:00:31;20.57;;;2.33;;
5606;SDS011;2825;53.116;9.392;2022-08-01T10:02:59;22.13;;;3.17;;
5606;SDS011;2825;53.116;9.392;2022-08-01T10:05:42;20.90;;;2.50;;
5606;SDS011;2825;53.116;9.392;2022-08-01T10:08:09;20.30;;;2.60;;
5606;SDS011;2825;53.116;9.392;2022-08-01T10:10:35;20.67;;;2.27;;
5606;SDS011;2825;53.116;9.392;2022-08-01T10:13:01;22.53;;;2.73;;
5606;SDS011;2825;53.116;9.392;2022-08-01T10:15:27;19.13;;;2.53;;
5606;SDS011;2825;53.116;9.392;2022-08-01T10:17:56;21.10;;;3.30;;
5606;SDS011;2825;53.116;9.392;2022-08-01T10:20:25;19.33;;;2.50;;
5606;SDS011;2825;53.116;9.392;2022-08-01T10:22:53;21.60;;;2.40;;
5606;SDS011;2825;53.116;9.392;2022-08-01T10:25:20;24.63;;;2.70;;
5606;SDS011;2825;53.116;9.392;2022-08-01T10:27:48;19.90;;;2.47;;
5606;SDS011;2825;53.116;9.392;2022-08-01T10:30:14;21.63;;;2.80;;
5606;SDS011;2825;53.116;9.392;2022-08-01T10:32:41;20.70;;;2.20;;
5606;SDS011;2825;53.116;9.392;2022-08-01T10:35:09;19.00;;;1.93;;
5606;SDS011;2825;53.116;9.392;2022-08-01T10:37:42;22.53;;;2.30;;
5606;SDS011;2825;53.116;9.392;2022-08-01T10:40:10;25.17;;;2.37;;
5606;SDS011;2825;53.116;9.392;2022-08-01T10:42:41;19.07;;;2.13;;
5606;SDS011;2825;53.116;9.392;2022-08-01T10:45:08;24.10;;;3.10;;
5606;SDS011;2825;53.116;9.392;2022-08-01T10:47:51;21.77;;;1.83;;
5606;SDS011;2825;53.116;9.392;2022-08-01T10:58:22;18.97;;;2.30;;
5606;SDS011;2825;53.116;9.392;2022-08-01T11:00:49;23.43;;;4.17;;
5606;SDS011;2825;53.116;9.392;2022-08-01T11:04:31;19.67;;;1.90;;
5606;SDS011;2825;53.116;9.392;2022-08-01T11:09:00;19.63;;;1.90;;
5606;SDS011;2825;53.116;9.392;2022-08-01T11:11:28;18.43;;;1.80;;
5606;SDS011;2825;53.116;9.392;2022-08-01T11:16:27;22.87;;;2.03;;
5606;SDS011;2825;53.116;9.392;2022-08-01T11:18:54;18.03;;;2.00;;
5606;SDS011;2825;53.116;9.392;2022-08-01T11:21:20;23.40;;;2.10;;
5606;SDS011;2825;53.116;9.392;2022-08-01T11:23:49;23.87;;;2.80;;
5606;SDS011;2825;53.116;9.392;2022-08-01T11:26:19;18.63;;;1.90;;
5606;SDS011;2825;53.116;9.392;2022-08-01T11:28:46;18.10;;;2.03;;
5606;SDS011;2825;53.116;9.392;2022-08-01T11:31:41;20.10;;;2.17;;
5606;SDS011;2825;53.116;9.392;2022-08-01T11:34:07;20.20;;;2.13;;
5606;SDS011;2825;53.116;9.392;2022-08-01T11:36:33;17.87;;;1.43;;
5606;SDS011;2825;53.116;9.392;2022-08-01T11:51:53;20.53;;;2.07;;
5606;SDS011;2825;53.116;9.392;2022-08-01T11:54:26;20.67;;;1.87;;
5606;SDS011;2825;53.116;9.392;2022-08-01T11:56:57;19.57;;;1.80;;
5606;SDS011;2825;53.116;9.392;2022-08-01T11:59:24;18.53;;;1.70;;
5606;SDS011;2825;53.116;9.392;2022-08-01T12:01:51;20.87;;;2.30;;
5606;SDS011;2825;53.116;9.392;2022-08-01T12:04:17;18.73;;;1.37;;
5606;SDS011;2825;53.116;9.392;2022-08-01T12:06:44;19.37;;;2.20;;
5606;SDS011;2825;53.116;9.392;2022-08-01T12:09:17;21.07;;;1.80;;
5606;SDS011;2825;53.116;9.392;2022-08-01T12:11:47;18.50;;;1.70;;
5606;SDS011;2825;53.116;9.392;2022-08-01T12:14:19;18.90;;;2.43;;
5606;SDS011;2825;53.116;9.392;2022-08-01T12:16:52;20.13;;;1.70;;
5606;SDS011;2825;53.116;9.392;2022-08-01T12:19:23;19.10;;;1.57;;
5606;SDS011;2825;53.116;9.392;2022-08-01T12:22:05;20.60;;;2.03;;
5606;SDS011;2825;53.116;9.392;2022-08-01T12:24:36;22.03;;;2.37;;
5606;SDS011;2825;53.116;9.392;2022-08-01T12:27:04;22.07;;;2.70;;
5606;SDS011;2825;53.116;9.392;2022-08-01T12:29:40;18.30;;;1.77;;
5606;SDS011;2825;53.116;9.392;2022-08-01T12:32:21;17.57;;;1.50;;
5606;SDS011;2825;53.116;9.392;2022-08-01T12:34:52;19.77;;;2.00;;
5606;SDS011;2825;53.116;9.392;2022-08-01T12:37:19;19.47;;;1.67;;
5606;SDS011;2825;53.116;9.392;2022-08-01T12:39:45;21.73;;;2.07;;
5606;SDS011;2825;53.116;9.392;2022-08-01T12:42:12;21.87;;;1.70;;
5606;SDS011;2825;53.116;9.392;2022-08-01T12:44:39;20.47;;;2.03;;
5606;SDS011;2825;53.116;9.392;2022-08-01T12:47:08;17.97;;;3.20;;
5606;SDS011;2825;53.116;9.392;2022-08-01T12:49:37;20.87;;;2.07;;
5606;SDS011;2825;53.116;9.392;2022-08-01T12:52:03;18.50;;;1.87;;
5606;SDS011;2825;53.116;9.392;2022-08-01T12:54:30;19.57;;;1.70;;
5606;SDS011;2825;53.116;9.392;2022-08-01T12:57:23;19.93;;;2.00;;
5606;SDS011;2825;53.116;9.392;2022-08-01T12:59:52;18.67;;;2.07;;
5606;SDS011;2825;53.116;9.392;2022-08-01T13:02:18;19.67;;;1.80;;
5606;SDS011;2825;53.116;9.392;2022-08-01T13:04:50;19.80;;;1.70;;
5606;SDS011;2825;53.116;9.392;2022-08-01T13:07:16;22.07;;;1.80;;
5606;SDS011;2825;53.116;9.392;2022-08-01T13:09:51;20.47;;;2.00;;
5606;SDS011;2825;53.116;9.392;2022-08-01T13:12:17;19.30;;;1.70;;
5606;SDS011;2825;53.116;9.392;2022-08-01T13:14:43;17.30;;;1.80;;
5606;SDS011;2825;53.116;9.392;2022-08-01T13:17:09;25.00;;;3.20;;
5606;SDS011;2825;53.116;9.392;2022-08-01T13:19:44;19.00;;;3.03;;
5606;SDS011;2825;53.116;9.392;2022-08-01T13:22:11;23.97;;;2.93;;
5606;SDS011;2825;53.116;9.392;2022-08-01T13:24:37;20.33;;;2.10;;
5606;SDS011;2825;53.116;9.392;2022-08-01T13:27:03;17.07;;;1.70;;
5606;SDS011;2825;53.116;9.392;2022-08-01T13:29:33;19.53;;;1.90;;
5606;SDS011;2825;53.116;9.392;2022-08-01T13:32:19;25.00;;;2.33;;
5606;SDS011;2825;53.116;9.392;2022-08-01T13:34:46;18.23;;;1.70;;
5606;SDS011;2825;53.116;9.392;2022-08-01T13:37:12;20.07;;;1.97;;
5606;SDS011;2825;53.116;9.392;2022-08-01T13:39:38;18.73;;;2.03;;
5606;SDS011;2825;53.116;9.392;2022-08-01T13:42:16;18.50;;;2.07;;
5606;SDS011;2825;53.116;9.392;2022-08-01T13:44:42;22.57;;;2.27;;
5606;SDS011;2825;53.116;9.392;2022-08-01T13:47:11;20.17;;;2.10;;
5606;SDS011;2825;53.116;9.392;2022-08-01T13:49:37;22.00;;;1.53;;
5606;SDS011;2825;53.116;9.392;2022-08-01T13:52:03;20.83;;;1.90;;
5606;SDS011;2825;53.116;9.392;2022-08-01T13:54:31;18.40;;;1.60;;
5606;SDS011;2825;53.116;9.392;2022-08-01T13:56:57;19.47;;;1.90;;
5606;SDS011;2825;53.116;9.392;2022-08-01T13:59:23;21.30;;;1.90;;
5606;SDS011;2825;53.116;9.392;2022-08-01T14:01:49;21.33;;;1.43;;
5606;SDS011;2825;53.116;9.392;2022-08-01T14:04:15;18.50;;;1.77;;
5606;SDS011;2825;53.116;9.392;2022-08-01T14:06:41;21.30;;;2.50;;
5606;SDS011;2825;53.116;9.392;2022-08-01T14:09:07;17.73;;;2.17;;
5606;SDS011;2825;53.116;9.392;2022-08-01T14:11:33;19.93;;;1.80;;
5606;SDS011;2825;53.116;9.392;2022-08-01T14:13:59;18.60;;;1.93;;
5606;SDS011;2825;53.116;9.392;2022-08-01T14:16:24;19.00;;;1.53;;
5606;SDS011;2825;53.116;9.392;2022-08-01T14:18:50;20.23;;;2.20;;
5606;SDS011;2825;53.116;9.392;2022-08-01T14:21:16;18.40;;;1.90;;
5606;SDS011;2825;53.116;9.392;2022-08-01T14:23:42;19.27;;;1.90;;
5606;SDS011;2825;53.116;9.392;2022-08-01T14:26:08;18.40;;;1.53;;
5606;SDS011;2825;53.116;9.392;2022-08-01T14:28:35;17.33;;;1.70;;
5606;SDS011;2825;53.116;9.392;2022-08-01T14:31:01;17.67;;;1.20;;
5606;SDS011;2825;53.116;9.392;2022-08-01T14:33:27;16.77;;;1.53;;
5606;SDS011;2825;53.116;9.392;2022-08-01T14:35:53;19.80;;;1.77;;
5606;SDS011;2825;53.116;9.392;2022-08-01T14:38:18;17.37;;;1.40;;
5606;SDS011;2825;53.116;9.392;2022-08-01T14:40:44;18.23;;;1.93;;
5606;SDS011;2825;53.116;9.392;2022-08-01T14:43:12;18.00;;;1.80;;
5606;SDS011;2825;53.116;9.392;2022-08-01T14:45:38;17.73;;;1.30;;
5606;SDS011;2825;53.116;9.392;2022-08-01T14:48:04;18.30;;;1.80;;
5606;SDS011;2825;53.116;9.392;2022-08-01T14:50:30;15.40;;;1.10;;
5606;SDS011;2825;53.116;9.392;2022-08-01T14:52:56;19.00;;;1.70;;
5606;SDS011;2825;53.116;9.392;2022-08-01T14:55:21;17.57;;;1.50;;
5606;SDS011;2825;53.116;9.392;2022-08-01T14:57:50;18.67;;;1.77;;
5606;SDS011;2825;53.116;9.392;2022-08-01T15:00:16;17.53;;;1.77;;
5606;SDS011;2825;53.116;9.392;2022-08-01T15:02:42;16.87;;;1.40;;
5606;SDS011;2825;53.116;9.392;2022-08-01T15:05:08;18.53;;;1.67;;
5606;SDS011;2825;53.116;9.392;2022-08-01T15:07:35;18.20;;;1.40;;
5606;SDS011;2825;53.116;9.392;2022-08-01T15:10:02;17.33;;;1.87;;
5606;SDS011;2825;53.116;9.392;2022-08-01T15:12:29;16.83;;;1.23;;
5606;SDS011;2825;53.116;9.392;2022-08-01T15:14:55;15.97;;;1.57;;
5606;SDS011;2825;53.116;9.392;2022-08-01T15:17:25;17.73;;;1.90;;
5606;SDS011;2825;53.116;9.392;2022-08-01T15:19:56;17.60;;;1.57;;
5606;SDS011;2825;53.116;9.392;2022-08-01T15:22:24;18.37;;;1.90;;
5606;SDS011;2825;53.116;9.392;2022-08-01T15:24:51;16.03;;;1.23;;
5606;SDS011;2825;53.116;9.392;2022-08-01T15:27:18;17.70;;;1.70;;
5606;SDS011;2825;53.116;9.392;2022-08-01T15:29:45;24.40;;;2.13;;
5606;SDS011;2825;53.116;9.392;2022-08-01T15:32:12;18.33;;;1.60;;
5606;SDS011;2825;53.116;9.392;2022-08-01T15:34:38;17.33;;;1.80;;
5606;SDS011;2825;53.116;9.392;2022-08-01T15:37:04;15.77;;;1.57;;
5606;SDS011;2825;53.116;9.392;2022-08-01T15:39:31;17.90;;;1.80;;
5606;SDS011;2825;53.116;9.392;2022-08-01T15:42:07;18.77;;;1.80;;
5606;SDS011;2825;53.116;9.392;2022-08-01T15:44:35;18.83;;;2.03;;
5606;SDS011;2825;53.116;9.392;2022-08-01T15:47:02;17.53;;;1.60;;
5606;SDS011;2825;53.116;9.392;2022-08-01T15:49:29;21.53;;;2.43;;
5606;SDS011;2825;53.116;9.392;2022-08-01T15:51:55;15.83;;;1.73;;